EZY484 EGKK-EGCC
Flight info
| Callsign | EZY484 |
|---|---|
| Flight time | 0h 36m |
| Altitude | 22000 |
| Route | LAM N57 WELIN DCT TIMPO DCT ELVOS DCT TNT |
| Aircraft | A320/M-SDE3FGHIRWY/LB1 |
Departure
| Time | 2026-05-04 14:48 |
|---|---|
| Airport | London Gatwick Airport (EGKK) |
Arrival
| Time | 2026-05-04 15:24 |
|---|---|
| Airport | Manchester Airport (EGCC) |
| Time | Latitude | Longitude | Altitude | Speed | Heading |
|---|---|---|---|---|---|
| 2026-05-04 14:17 | 51.15651 | -0.17793 | 214 ft | 0 kts | 167° |
| 2026-05-04 14:18 | 51.15654 | -0.17793 | 214 ft | 1 kts | 167° |
| 2026-05-04 14:18 | 51.15651 | -0.17793 | 205 ft | 0 kts | 167° |
| 2026-05-04 14:37 | 51.15671 | -0.17800 | 215 ft | 4 kts | 167° |
| 2026-05-04 14:37 | 51.15693 | -0.17808 | 210 ft | 4 kts | 175° |
| 2026-05-04 14:37 | 51.15716 | -0.17801 | 214 ft | 4 kts | 229° |
| 2026-05-04 14:37 | 51.15727 | -0.17764 | 212 ft | 4 kts | 257° |
| 2026-05-04 14:38 | 51.15732 | -0.17726 | 207 ft | 3 kts | 257° |
| 2026-05-04 14:38 | 51.15733 | -0.17721 | 208 ft | 0 kts | 257° |
| 2026-05-04 14:40 | 51.15721 | -0.17802 | 205 ft | 10 kts | 257° |
| 2026-05-04 14:40 | 51.15707 | -0.17914 | 205 ft | 14 kts | 258° |
| 2026-05-04 14:40 | 51.15686 | -0.18061 | 214 ft | 13 kts | 258° |
| 2026-05-04 14:40 | 51.15668 | -0.18191 | 207 ft | 11 kts | 258° |
| 2026-05-04 14:41 | 51.15653 | -0.18306 | 208 ft | 10 kts | 258° |
| 2026-05-04 14:41 | 51.15639 | -0.18406 | 205 ft | 9 kts | 258° |
| 2026-05-04 14:41 | 51.15599 | -0.18688 | 208 ft | 17 kts | 257° |
| 2026-05-04 14:42 | 51.15422 | -0.18796 | 210 ft | 22 kts | 170° |
| 2026-05-04 14:42 | 51.15270 | -0.18743 | 205 ft | 18 kts | 167° |
| 2026-05-04 14:42 | 51.15146 | -0.18716 | 207 ft | 17 kts | 204° |
| 2026-05-04 14:43 | 51.15112 | -0.18874 | 213 ft | 17 kts | 257° |
| 2026-05-04 14:43 | 51.15088 | -0.19043 | 210 ft | 15 kts | 257° |
| 2026-05-04 14:43 | 51.15067 | -0.19193 | 212 ft | 13 kts | 257° |
| 2026-05-04 14:43 | 51.15050 | -0.19325 | 207 ft | 11 kts | 258° |
| 2026-05-04 14:44 | 51.15035 | -0.19440 | 211 ft | 11 kts | 258° |
| 2026-05-04 14:44 | 51.15006 | -0.19650 | 209 ft | 29 kts | 258° |
| 2026-05-04 14:44 | 51.14961 | -0.19977 | 205 ft | 31 kts | 257° |
| 2026-05-04 14:44 | 51.14913 | -0.20318 | 212 ft | 32 kts | 257° |
| 2026-05-04 14:45 | 51.14865 | -0.20670 | 205 ft | 33 kts | 258° |
| 2026-05-04 14:45 | 51.14813 | -0.21013 | 205 ft | 24 kts | 254° |
| 2026-05-04 14:45 | 51.14782 | -0.21210 | 210 ft | 16 kts | 255° |
| 2026-05-04 14:45 | 51.14754 | -0.21370 | 214 ft | 14 kts | 244° |
| 2026-05-04 14:46 | 51.14681 | -0.21386 | 211 ft | 11 kts | 145° |
| 2026-05-04 14:46 | 51.14644 | -0.21345 | 208 ft | 4 kts | 155° |
| 2026-05-04 14:46 | 51.14620 | -0.21332 | 212 ft | 3 kts | 162° |
| 2026-05-04 14:46 | 51.14591 | -0.21317 | 214 ft | 12 kts | 162° |
| 2026-05-04 14:47 | 51.14518 | -0.21208 | 211 ft | 14 kts | 102° |
| 2026-05-04 14:47 | 51.14529 | -0.21109 | 215 ft | 0 kts | 78° |
| 2026-05-04 14:47 | 51.14529 | -0.21108 | 214 ft | 1 kts | 78° |
| 2026-05-04 14:48 | 51.14565 | -0.20855 | 211 ft | 59 kts | 77° |
| 2026-05-04 14:48 | 51.14699 | -0.19875 | 214 ft | 120 kts | 78° |
| 2026-05-04 14:48 | 51.14918 | -0.18321 | 280 ft | 160 kts | 78° |
| 2026-05-04 14:48 | 51.15151 | -0.16595 | 1017 ft | 160 kts | 78° |
| 2026-05-04 14:49 | 51.15379 | -0.14808 | 1562 ft | 174 kts | 78° |
| 2026-05-04 14:49 | 51.15646 | -0.12826 | 1966 ft | 191 kts | 78° |
| 2026-05-04 14:49 | 51.15950 | -0.10654 | 2348 ft | 213 kts | 77° |
| 2026-05-04 14:49 | 51.16294 | -0.08229 | 2763 ft | 236 kts | 74° |
| 2026-05-04 14:50 | 51.17109 | -0.05849 | 3277 ft | 255 kts | 44° |
| 2026-05-04 14:50 | 51.18645 | -0.04421 | 4082 ft | 261 kts | 15° |
| 2026-05-04 14:50 | 51.20411 | -0.03798 | 4974 ft | 265 kts | 13° |
| 2026-05-04 14:50 | 51.22210 | -0.03074 | 5839 ft | 269 kts | 14° |
| 2026-05-04 14:51 | 51.24038 | -0.02277 | 6680 ft | 274 kts | 15° |
| 2026-05-04 14:51 | 51.25917 | -0.01442 | 7499 ft | 279 kts | 15° |
| 2026-05-04 14:51 | 51.27776 | -0.00621 | 8322 ft | 283 kts | 15° |
| 2026-05-04 14:51 | 51.29688 | 0.00214 | 9111 ft | 288 kts | 14° |
| 2026-05-04 14:52 | 51.31638 | 0.01053 | 9951 ft | 292 kts | 14° |
| 2026-05-04 14:52 | 51.33613 | 0.01897 | 10769 ft | 296 kts | 14° |
| 2026-05-04 14:52 | 51.35622 | 0.02750 | 11520 ft | 301 kts | 14° |
| 2026-05-04 14:52 | 51.37663 | 0.03617 | 12301 ft | 305 kts | 14° |
| 2026-05-04 14:53 | 51.39728 | 0.04498 | 13075 ft | 309 kts | 14° |
| 2026-05-04 14:53 | 51.41817 | 0.05390 | 13808 ft | 313 kts | 14° |
| 2026-05-04 14:53 | 51.43935 | 0.06295 | 14458 ft | 317 kts | 14° |
| 2026-05-04 14:53 | 51.46076 | 0.07211 | 15106 ft | 320 kts | 14° |
| 2026-05-04 14:54 | 51.48239 | 0.08136 | 15755 ft | 324 kts | 14° |
| 2026-05-04 14:54 | 51.50434 | 0.09076 | 16430 ft | 328 kts | 15° |
| 2026-05-04 14:54 | 51.52662 | 0.10031 | 17086 ft | 332 kts | 15° |
| 2026-05-04 14:54 | 51.54911 | 0.10999 | 17731 ft | 337 kts | 15° |
| 2026-05-04 14:55 | 51.57190 | 0.11982 | 18345 ft | 341 kts | 15° |
| 2026-05-04 14:55 | 51.59493 | 0.12974 | 18883 ft | 344 kts | 14° |
| 2026-05-04 14:55 | 51.61870 | 0.13523 | 19434 ft | 347 kts | 358° |
| 2026-05-04 14:55 | 51.64250 | 0.12970 | 19989 ft | 347 kts | 340° |
| 2026-05-04 14:56 | 51.66488 | 0.11376 | 20210 ft | 360 kts | 326° |
| 2026-05-04 14:56 | 51.68479 | 0.08805 | 20341 ft | 372 kts | 312° |
| 2026-05-04 14:56 | 51.70309 | 0.05749 | 20469 ft | 387 kts | 312° |
| 2026-05-04 14:56 | 51.72226 | 0.02589 | 20700 ft | 399 kts | 312° |
| 2026-05-04 14:57 | 51.74189 | -0.00621 | 21169 ft | 404 kts | 312° |
| 2026-05-04 14:57 | 51.76167 | -0.03856 | 21652 ft | 407 kts | 312° |
| 2026-05-04 14:57 | 51.78158 | -0.07120 | 22001 ft | 409 kts | 312° |
| 2026-05-04 14:57 | 51.80163 | -0.10415 | 22062 ft | 413 kts | 312° |
| 2026-05-04 14:58 | 51.82186 | -0.13752 | 22074 ft | 415 kts | 312° |
| 2026-05-04 14:58 | 51.84207 | -0.17091 | 22052 ft | 415 kts | 312° |
| 2026-05-04 14:58 | 51.86223 | -0.20431 | 22052 ft | 415 kts | 312° |
| 2026-05-04 14:58 | 51.88236 | -0.23771 | 22057 ft | 415 kts | 312° |
| 2026-05-04 14:59 | 51.90228 | -0.27087 | 22059 ft | 415 kts | 312° |
| 2026-05-04 14:59 | 51.92239 | -0.30444 | 22059 ft | 415 kts | 312° |
| 2026-05-04 14:59 | 51.96261 | -0.37166 | 22055 ft | 415 kts | 312° |
| 2026-05-04 15:00 | 51.98272 | -0.40528 | 22051 ft | 415 kts | 312° |
| 2026-05-04 15:00 | 52.00281 | -0.43887 | 22051 ft | 415 kts | 312° |
| 2026-05-04 15:00 | 52.02296 | -0.47260 | 22049 ft | 415 kts | 312° |
| 2026-05-04 15:01 | 52.06309 | -0.54001 | 22058 ft | 414 kts | 312° |
| 2026-05-04 15:01 | 52.08310 | -0.57371 | 22055 ft | 414 kts | 312° |
| 2026-05-04 15:01 | 52.10309 | -0.60741 | 22056 ft | 414 kts | 312° |
| 2026-05-04 15:01 | 52.12315 | -0.64127 | 22055 ft | 414 kts | 311° |
| 2026-05-04 15:02 | 52.14286 | -0.67458 | 22054 ft | 413 kts | 312° |
| 2026-05-04 15:02 | 52.16304 | -0.70878 | 22057 ft | 413 kts | 311° |
| 2026-05-04 15:02 | 52.18269 | -0.74217 | 22054 ft | 414 kts | 311° |
| 2026-05-04 15:02 | 52.20259 | -0.77602 | 22052 ft | 414 kts | 311° |
| 2026-05-04 15:03 | 52.22249 | -0.80987 | 22056 ft | 414 kts | 311° |
| 2026-05-04 15:03 | 52.24320 | -0.84340 | 22051 ft | 415 kts | 317° |
| 2026-05-04 15:03 | 52.26647 | -0.87136 | 22048 ft | 417 kts | 326° |
| 2026-05-04 15:03 | 52.29124 | -0.89592 | 22053 ft | 417 kts | 327° |
| 2026-05-04 15:04 | 52.31571 | -0.92018 | 22049 ft | 417 kts | 327° |
| 2026-05-04 15:04 | 52.34048 | -0.94479 | 22048 ft | 417 kts | 327° |
| 2026-05-04 15:04 | 52.36524 | -0.96944 | 22046 ft | 417 kts | 327° |
| 2026-05-04 15:04 | 52.38999 | -0.99418 | 22055 ft | 417 kts | 327° |
| 2026-05-04 15:05 | 52.41499 | -1.01925 | 21968 ft | 413 kts | 327° |
| 2026-05-04 15:05 | 52.43896 | -1.04326 | 21700 ft | 407 kts | 327° |
| 2026-05-04 15:05 | 52.46307 | -1.06739 | 21429 ft | 404 kts | 327° |
| 2026-05-04 15:05 | 52.48698 | -1.09137 | 21168 ft | 402 kts | 327° |
| 2026-05-04 15:06 | 52.51082 | -1.11530 | 20909 ft | 400 kts | 327° |
| 2026-05-04 15:06 | 52.53447 | -1.13908 | 20651 ft | 398 kts | 327° |
| 2026-05-04 15:06 | 52.55807 | -1.16285 | 20385 ft | 396 kts | 327° |
| 2026-05-04 15:07 | 52.60478 | -1.21008 | 19882 ft | 393 kts | 327° |
| 2026-05-04 15:07 | 52.62795 | -1.23353 | 19622 ft | 390 kts | 327° |
| 2026-05-04 15:07 | 52.65107 | -1.25694 | 19363 ft | 390 kts | 327° |
| 2026-05-04 15:07 | 52.67413 | -1.28035 | 19084 ft | 388 kts | 327° |
| 2026-05-04 15:08 | 52.69703 | -1.30363 | 18803 ft | 386 kts | 327° |
| 2026-05-04 15:08 | 52.71987 | -1.32684 | 18508 ft | 385 kts | 327° |
| 2026-05-04 15:08 | 52.74259 | -1.34998 | 18241 ft | 383 kts | 327° |
| 2026-05-04 15:08 | 52.76527 | -1.37308 | 17917 ft | 381 kts | 327° |
| 2026-05-04 15:09 | 52.78775 | -1.39602 | 17587 ft | 378 kts | 327° |
| 2026-05-04 15:09 | 52.81000 | -1.41874 | 17265 ft | 375 kts | 327° |
| 2026-05-04 15:09 | 52.83215 | -1.44139 | 16960 ft | 373 kts | 327° |
| 2026-05-04 15:10 | 52.87619 | -1.48645 | 16334 ft | 370 kts | 327° |
| 2026-05-04 15:10 | 52.89805 | -1.50885 | 15992 ft | 368 kts | 327° |
| 2026-05-04 15:10 | 52.94130 | -1.55329 | 15199 ft | 364 kts | 327° |
| 2026-05-04 15:11 | 52.96245 | -1.57510 | 14805 ft | 361 kts | 327° |
| 2026-05-04 15:11 | 52.98370 | -1.59709 | 14416 ft | 359 kts | 327° |
| 2026-05-04 15:11 | 53.00482 | -1.61896 | 14042 ft | 356 kts | 327° |
| 2026-05-04 15:11 | 53.02600 | -1.64093 | 13631 ft | 353 kts | 327° |
| 2026-05-04 15:12 | 53.04621 | -1.66246 | 13210 ft | 347 kts | 322° |
| 2026-05-04 15:12 | 53.06396 | -1.68910 | 12794 ft | 342 kts | 310° |
| 2026-05-04 15:12 | 53.07934 | -1.71887 | 12380 ft | 337 kts | 309° |
| 2026-05-04 15:12 | 53.09450 | -1.74831 | 11950 ft | 333 kts | 310° |
| 2026-05-04 15:13 | 53.10949 | -1.77736 | 11559 ft | 329 kts | 310° |
| 2026-05-04 15:13 | 53.12629 | -1.80280 | 11100 ft | 329 kts | 329° |
| 2026-05-04 15:13 | 53.14778 | -1.81591 | 10605 ft | 330 kts | 347° |
| 2026-05-04 15:13 | 53.17057 | -1.82081 | 10121 ft | 330 kts | 355° |
| 2026-05-04 15:14 | 53.19340 | -1.82249 | 9593 ft | 323 kts | 357° |
| 2026-05-04 15:14 | 53.21541 | -1.82383 | 9065 ft | 310 kts | 356° |
| 2026-05-04 15:14 | 53.23658 | -1.82601 | 8546 ft | 299 kts | 354° |
| 2026-05-04 15:14 | 53.25694 | -1.82923 | 8032 ft | 289 kts | 353° |
| 2026-05-04 15:15 | 53.27661 | -1.83318 | 7534 ft | 280 kts | 352° |
| 2026-05-04 15:15 | 53.29570 | -1.83749 | 7037 ft | 273 kts | 351° |
| 2026-05-04 15:15 | 53.31422 | -1.84190 | 6548 ft | 266 kts | 351° |
| 2026-05-04 15:16 | 53.34997 | -1.85048 | 5512 ft | 253 kts | 351° |
| 2026-05-04 15:16 | 53.36727 | -1.85457 | 5003 ft | 248 kts | 351° |
| 2026-05-04 15:16 | 53.40037 | -1.86236 | 4208 ft | 233 kts | 351° |
| 2026-05-04 15:17 | 53.41635 | -1.86613 | 3830 ft | 233 kts | 351° |
| 2026-05-04 15:17 | 53.44817 | -1.87366 | 3491 ft | 228 kts | 351° |
| 2026-05-04 15:17 | 53.46392 | -1.87736 | 3492 ft | 229 kts | 351° |
| 2026-05-04 15:18 | 53.47439 | -1.87981 | 3493 ft | 229 kts | 351° |
| 2026-05-04 15:18 | 53.48997 | -1.88349 | 3493 ft | 224 kts | 351° |
| 2026-05-04 15:18 | 53.50822 | -1.89726 | 3491 ft | 220 kts | 309° |
| 2026-05-04 15:19 | 53.51296 | -1.93738 | 3496 ft | 219 kts | 249° |
| 2026-05-04 15:19 | 53.50419 | -1.95715 | 3490 ft | 208 kts | 221° |
| 2026-05-04 15:19 | 53.48610 | -1.99287 | 3492 ft | 198 kts | 235° |
| 2026-05-04 15:20 | 53.47810 | -2.01170 | 3490 ft | 197 kts | 234° |
| 2026-05-04 15:20 | 53.46993 | -2.03016 | 3493 ft | 197 kts | 233° |
| 2026-05-04 15:20 | 53.46163 | -2.04844 | 3492 ft | 197 kts | 233° |
| 2026-05-04 15:20 | 53.45327 | -2.06699 | 3268 ft | 202 kts | 233° |
| 2026-05-04 15:21 | 53.44484 | -2.08526 | 2979 ft | 198 kts | 232° |
| 2026-05-04 15:21 | 53.43624 | -2.10340 | 2673 ft | 194 kts | 231° |
| 2026-05-04 15:21 | 53.41993 | -2.13742 | 2166 ft | 178 kts | 231° |
| 2026-05-04 15:22 | 53.41261 | -2.15267 | 1927 ft | 159 kts | 231° |
| 2026-05-04 15:22 | 53.40639 | -2.16561 | 1721 ft | 149 kts | 231° |
| 2026-05-04 15:22 | 53.39384 | -2.19187 | 1321 ft | 142 kts | 231° |
| 2026-05-04 15:23 | 53.38763 | -2.20473 | 1114 ft | 141 kts | 231° |
| 2026-05-04 15:23 | 53.38154 | -2.21745 | 924 ft | 140 kts | 231° |
| 2026-05-04 15:23 | 53.37546 | -2.23007 | 728 ft | 138 kts | 231° |
| 2026-05-04 15:23 | 53.36945 | -2.24255 | 551 ft | 137 kts | 230° |
| 2026-05-04 15:24 | 53.35763 | -2.26697 | 238 ft | 123 kts | 230° |
| 2026-05-04 15:24 | 53.35278 | -2.27764 | 251 ft | 28 kts | 251° |
| 2026-05-04 15:25 | 53.35243 | -2.28021 | 252 ft | 17 kts | 259° |
| 2026-05-04 15:25 | 53.35242 | -2.28192 | 254 ft | 15 kts | 299° |
| 2026-05-04 15:25 | 53.35330 | -2.28192 | 254 ft | 13 kts | 15° |
| 2026-05-04 15:26 | 53.35455 | -2.28146 | 253 ft | 8 kts | 16° |
| 2026-05-04 15:26 | 53.35512 | -2.28104 | 253 ft | 9 kts | 32° |
| 2026-05-04 15:26 | 53.35601 | -2.27952 | 252 ft | 13 kts | 50° |
| 2026-05-04 15:27 | 53.35673 | -2.27886 | 251 ft | 11 kts | 9° |